Readville, Massachusetts
Current Conditions -  °F | °C
As of 7:53 AM on Wednesday 22 Oct 2014 (Local Time) from KOWD Reporting Station
Light Rain Light Rain  
Wind Chill: 54°   Ceiling: 400
Heat Index: 54°   Visibility: 4mi
Dew Point: 53°   Wind: 8mph
Humidity: 97%   Direction: 30°NNE
Pressure: 29.97"   Gusts: NA
Location:  42.24°N, 71.13°W
Report Text: KOWD 221153Z 03007KT 4SM -RA BR OVC004 12/12 A2997 RMK AO2 SLP147 P0004 60006 70009 T01220117 10122 20106 58001
Loading
Personal Weather Stations






























Interactive Weather Map
Tropical Storm Tracking
New forecast layout! Learn more

10-Day Weather Forecast

Advertisements
Track Severe Weather on mobile